sensor_id;sensor_type;location;lat;lon;timestamp;P1;durP1;ratioP1;P2;durP2;ratioP2
1140;SDS011;559;48.628;8.924;2023-04-02T00:01:24;132.80;;;126.20;;
1140;SDS011;559;48.628;8.924;2023-04-02T00:04:03;134.18;;;127.63;;
1140;SDS011;559;48.628;8.924;2023-04-02T00:06:46;130.35;;;123.95;;
1140;SDS011;559;48.628;8.924;2023-04-02T00:12:14;135.95;;;129.27;;
1140;SDS011;559;48.628;8.924;2023-04-02T00:14:44;138.40;;;131.43;;
1140;SDS011;559;48.628;8.924;2023-04-02T00:17:12;130.73;;;124.20;;
1140;SDS011;559;48.628;8.924;2023-04-02T00:19:40;130.35;;;123.82;;
1140;SDS011;559;48.628;8.924;2023-04-02T00:22:12;127.53;;;121.13;;
1140;SDS011;559;48.628;8.924;2023-04-02T00:24:43;124.20;;;117.90;;
1140;SDS011;559;48.628;8.924;2023-04-02T00:27:09;124.80;;;118.60;;
1140;SDS011;559;48.628;8.924;2023-04-02T00:29:45;123.00;;;116.57;;
1140;SDS011;559;48.628;8.924;2023-04-02T00:32:14;123.05;;;116.85;;
1140;SDS011;559;48.628;8.924;2023-04-02T00:34:44;127.97;;;121.70;;
1140;SDS011;559;48.628;8.924;2023-04-02T00:37:12;131.02;;;124.72;;
1140;SDS011;559;48.628;8.924;2023-04-02T00:39:42;128.40;;;122.20;;
1140;SDS011;559;48.628;8.924;2023-04-02T00:42:10;124.38;;;118.38;;
1140;SDS011;559;48.628;8.924;2023-04-02T00:44:38;128.43;;;122.22;;
1140;SDS011;559;48.628;8.924;2023-04-02T00:47:11;129.52;;;123.22;;
1140;SDS011;559;48.628;8.924;2023-04-02T00:49:41;124.45;;;118.45;;
1140;SDS011;559;48.628;8.924;2023-04-02T00:52:09;122.05;;;116.15;;
1140;SDS011;559;48.628;8.924;2023-04-02T00:54:38;123.85;;;117.75;;
1140;SDS011;559;48.628;8.924;2023-04-02T00:57:11;123.10;;;117.00;;
1140;SDS011;559;48.628;8.924;2023-04-02T00:59:42;124.15;;;118.10;;
1140;SDS011;559;48.628;8.924;2023-04-02T01:02:23;126.60;;;120.40;;
1140;SDS011;559;48.628;8.924;2023-04-02T01:04:53;128.95;;;122.82;;
1140;SDS011;559;48.628;8.924;2023-04-02T01:07:22;124.22;;;118.22;;
1140;SDS011;559;48.628;8.924;2023-04-02T01:10:01;124.43;;;118.47;;
1140;SDS011;559;48.628;8.924;2023-04-02T01:12:38;129.10;;;123.00;;
1140;SDS011;559;48.628;8.924;2023-04-02T01:15:15;126.18;;;120.15;;
1140;SDS011;559;48.628;8.924;2023-04-02T01:17:54;123.35;;;117.20;;
1140;SDS011;559;48.628;8.924;2023-04-02T01:23:31;130.95;;;124.75;;
1140;SDS011;559;48.628;8.924;2023-04-02T01:26:03;128.65;;;122.45;;
1140;SDS011;559;48.628;8.924;2023-04-02T01:31:22;127.90;;;121.78;;
1140;SDS011;559;48.628;8.924;2023-04-02T01:33:49;126.03;;;120.03;;
1140;SDS011;559;48.628;8.924;2023-04-02T01:36:17;124.25;;;118.35;;
1140;SDS011;559;48.628;8.924;2023-04-02T01:38:49;127.30;;;121.30;;
1140;SDS011;559;48.628;8.924;2023-04-02T01:41:22;121.30;;;115.40;;
1140;SDS011;559;48.628;8.924;2023-04-02T01:43:53;118.45;;;112.60;;
1140;SDS011;559;48.628;8.924;2023-04-02T01:46:28;125.43;;;119.43;;
1140;SDS011;559;48.628;8.924;2023-04-02T01:48:59;121.38;;;115.45;;
1140;SDS011;559;48.628;8.924;2023-04-02T01:51:27;125.28;;;119.07;;
1140;SDS011;559;48.628;8.924;2023-04-02T01:53:57;122.45;;;116.45;;
1140;SDS011;559;48.628;8.924;2023-04-02T01:56:26;124.63;;;118.55;;
1140;SDS011;559;48.628;8.924;2023-04-02T01:58:54;120.75;;;114.85;;
1140;SDS011;559;48.628;8.924;2023-04-02T02:01:23;121.30;;;115.30;;
1140;SDS011;559;48.628;8.924;2023-04-02T02:03:51;126.45;;;119.95;;
1140;SDS011;559;48.628;8.924;2023-04-02T02:06:18;124.53;;;118.43;;
1140;SDS011;559;48.628;8.924;2023-04-02T02:08:46;122.13;;;116.03;;
1140;SDS011;559;48.628;8.924;2023-04-02T02:11:17;125.95;;;119.65;;
1140;SDS011;559;48.628;8.924;2023-04-02T02:13:49;125.97;;;119.78;;
1140;SDS011;559;48.628;8.924;2023-04-02T02:16:18;122.80;;;116.50;;
1140;SDS011;559;48.628;8.924;2023-04-02T02:18:48;121.50;;;115.50;;
1140;SDS011;559;48.628;8.924;2023-04-02T02:21:20;125.40;;;119.20;;
1140;SDS011;559;48.628;8.924;2023-04-02T02:23:53;121.70;;;115.30;;
1140;SDS011;559;48.628;8.924;2023-04-02T02:26:20;122.28;;;116.13;;
1140;SDS011;559;48.628;8.924;2023-04-02T02:28:47;124.80;;;118.60;;
1140;SDS011;559;48.628;8.924;2023-04-02T02:31:16;125.35;;;119.13;;
1140;SDS011;559;48.628;8.924;2023-04-02T02:33:54;122.38;;;116.15;;
1140;SDS011;559;48.628;8.924;2023-04-02T02:36:25;121.80;;;115.65;;
1140;SDS011;559;48.628;8.924;2023-04-02T02:38:54;124.32;;;118.18;;
1140;SDS011;559;48.628;8.924;2023-04-02T02:41:24;123.35;;;117.25;;
1140;SDS011;559;48.628;8.924;2023-04-02T02:43:56;125.15;;;118.85;;
1140;SDS011;559;48.628;8.924;2023-04-02T02:46:26;122.22;;;116.13;;
1140;SDS011;559;48.628;8.924;2023-04-02T02:48:56;121.90;;;115.80;;
1140;SDS011;559;48.628;8.924;2023-04-02T02:51:29;119.22;;;113.22;;
1140;SDS011;559;48.628;8.924;2023-04-02T02:54:04;121.03;;;114.93;;
1140;SDS011;559;48.628;8.924;2023-04-02T02:56:32;119.10;;;113.00;;
1140;SDS011;559;48.628;8.924;2023-04-02T02:59:01;124.78;;;118.65;;
1140;SDS011;559;48.628;8.924;2023-04-02T03:01:29;124.22;;;117.82;;
1140;SDS011;559;48.628;8.924;2023-04-02T03:03:58;124.50;;;118.15;;
1140;SDS011;559;48.628;8.924;2023-04-02T03:06:26;124.80;;;118.60;;
1140;SDS011;559;48.628;8.924;2023-04-02T03:08:56;121.63;;;115.63;;
1140;SDS011;559;48.628;8.924;2023-04-02T03:11:28;124.43;;;118.18;;
1140;SDS011;559;48.628;8.924;2023-04-02T03:14:02;129.23;;;122.93;;
1140;SDS011;559;48.628;8.924;2023-04-02T03:16:35;124.40;;;118.30;;
1140;SDS011;559;48.628;8.924;2023-04-02T03:19:08;126.82;;;120.63;;
1140;SDS011;559;48.628;8.924;2023-04-02T03:21:41;125.00;;;118.60;;
1140;SDS011;559;48.628;8.924;2023-04-02T03:24:13;121.60;;;115.50;;
1140;SDS011;559;48.628;8.924;2023-04-02T03:26:43;121.85;;;115.82;;
1140;SDS011;559;48.628;8.924;2023-04-02T03:29:12;126.97;;;120.75;;
1140;SDS011;559;48.628;8.924;2023-04-02T03:31:43;120.63;;;114.53;;
1140;SDS011;559;48.628;8.924;2023-04-02T03:34:15;118.72;;;112.82;;
1140;SDS011;559;48.628;8.924;2023-04-02T03:36:46;118.22;;;112.30;;
1140;SDS011;559;48.628;8.924;2023-04-02T03:39:17;122.97;;;116.68;;
1140;SDS011;559;48.628;8.924;2023-04-02T03:41:49;125.75;;;119.57;;
1140;SDS011;559;48.628;8.924;2023-04-02T03:44:20;119.57;;;113.57;;
1140;SDS011;559;48.628;8.924;2023-04-02T03:46:50;114.45;;;108.45;;
1140;SDS011;559;48.628;8.924;2023-04-02T03:49:27;119.65;;;113.68;;
1140;SDS011;559;48.628;8.924;2023-04-02T03:51:58;120.72;;;114.78;;
1140;SDS011;559;48.628;8.924;2023-04-02T03:54:31;119.78;;;113.80;;
1140;SDS011;559;48.628;8.924;2023-04-02T03:56:58;117.10;;;111.25;;
1140;SDS011;559;48.628;8.924;2023-04-02T03:59:27;116.97;;;111.13;;
1140;SDS011;559;48.628;8.924;2023-04-02T04:02:00;127.88;;;121.68;;
1140;SDS011;559;48.628;8.924;2023-04-02T04:04:37;121.25;;;115.10;;
1140;SDS011;559;48.628;8.924;2023-04-02T04:07:08;128.73;;;122.63;;
1140;SDS011;559;48.628;8.924;2023-04-02T04:09:38;130.10;;;123.90;;
1140;SDS011;559;48.628;8.924;2023-04-02T04:12:13;126.28;;;120.07;;
1140;SDS011;559;48.628;8.924;2023-04-02T04:14:43;130.20;;;124.03;;
1140;SDS011;559;48.628;8.924;2023-04-02T04:17:15;126.63;;;120.50;;
1140;SDS011;559;48.628;8.924;2023-04-02T04:19:51;131.65;;;125.38;;
1140;SDS011;559;48.628;8.924;2023-04-02T04:22:22;132.65;;;126.25;;
1140;SDS011;559;48.628;8.924;2023-04-02T04:24:56;136.93;;;130.43;;
1140;SDS011;559;48.628;8.924;2023-04-02T04:27:25;126.70;;;120.40;;
1140;SDS011;559;48.628;8.924;2023-04-02T04:29:59;131.13;;;124.78;;
1140;SDS011;559;48.628;8.924;2023-04-02T04:32:30;128.75;;;122.28;;
1140;SDS011;559;48.628;8.924;2023-04-02T04:35:05;126.45;;;120.05;;
1140;SDS011;559;48.628;8.924;2023-04-02T04:37:42;128.93;;;122.60;;
1140;SDS011;559;48.628;8.924;2023-04-02T04:40:18;127.88;;;121.57;;
1140;SDS011;559;48.628;8.924;2023-04-02T04:42:47;129.05;;;122.65;;
1140;SDS011;559;48.628;8.924;2023-04-02T04:45:21;119.95;;;113.70;;
1140;SDS011;559;48.628;8.924;2023-04-02T04:47:57;125.32;;;119.07;;
1140;SDS011;559;48.628;8.924;2023-04-02T04:50:29;125.80;;;119.55;;
1140;SDS011;559;48.628;8.924;2023-04-02T04:53:03;130.07;;;123.78;;
1140;SDS011;559;48.628;8.924;2023-04-02T04:55:38;128.52;;;122.20;;
1140;SDS011;559;48.628;8.924;2023-04-02T04:58:13;130.80;;;124.60;;
1140;SDS011;559;48.628;8.924;2023-04-02T05:00:46;131.90;;;125.50;;
1140;SDS011;559;48.628;8.924;2023-04-02T05:03:21;123.70;;;117.68;;
1140;SDS011;559;48.628;8.924;2023-04-02T05:05:58;134.13;;;127.78;;
1140;SDS011;559;48.628;8.924;2023-04-02T05:08:31;135.23;;;128.85;;
1140;SDS011;559;48.628;8.924;2023-04-02T05:11:04;128.35;;;122.05;;
1140;SDS011;559;48.628;8.924;2023-04-02T05:13:35;126.82;;;120.72;;
1140;SDS011;559;48.628;8.924;2023-04-02T05:16:08;130.10;;;124.00;;
1140;SDS011;559;48.628;8.924;2023-04-02T05:18:38;125.25;;;118.95;;
1140;SDS011;559;48.628;8.924;2023-04-02T05:21:12;120.35;;;114.45;;
1140;SDS011;559;48.628;8.924;2023-04-02T05:23:43;118.35;;;112.35;;
1140;SDS011;559;48.628;8.924;2023-04-02T05:26:13;121.95;;;115.60;;
1140;SDS011;559;48.628;8.924;2023-04-02T05:28:44;121.90;;;115.82;;
1140;SDS011;559;48.628;8.924;2023-04-02T05:31:13;127.15;;;120.75;;
1140;SDS011;559;48.628;8.924;2023-04-02T05:33:43;126.30;;;120.00;;
1140;SDS011;559;48.628;8.924;2023-04-02T05:36:19;134.10;;;127.43;;
1140;SDS011;559;48.628;8.924;2023-04-02T05:38:47;124.43;;;118.40;;
1140;SDS011;559;48.628;8.924;2023-04-02T05:41:17;119.75;;;113.80;;
1140;SDS011;559;48.628;8.924;2023-04-02T05:43:48;118.68;;;112.78;;
1140;SDS011;559;48.628;8.924;2023-04-02T05:46:17;125.63;;;119.53;;
1140;SDS011;559;48.628;8.924;2023-04-02T05:48:47;119.30;;;113.32;;
1140;SDS011;559;48.628;8.924;2023-04-02T05:51:16;116.18;;;110.28;;
1140;SDS011;559;48.628;8.924;2023-04-02T05:53:48;114.60;;;108.72;;
1140;SDS011;559;48.628;8.924;2023-04-02T05:56:17;115.18;;;109.28;;
1140;SDS011;559;48.628;8.924;2023-04-02T05:58:47;113.43;;;107.63;;
1140;SDS011;559;48.628;8.924;2023-04-02T06:01:18;114.30;;;108.53;;
1140;SDS011;559;48.628;8.924;2023-04-02T06:03:50;116.03;;;110.15;;
1140;SDS011;559;48.628;8.924;2023-04-02T06:06:25;110.70;;;105.00;;
1140;SDS011;559;48.628;8.924;2023-04-02T06:09:08;118.20;;;112.20;;
1140;SDS011;559;48.628;8.924;2023-04-02T06:11:38;110.50;;;104.85;;
1140;SDS011;559;48.628;8.924;2023-04-02T06:14:07;114.38;;;108.47;;
1140;SDS011;559;48.628;8.924;2023-04-02T06:16:35;113.13;;;107.43;;
1140;SDS011;559;48.628;8.924;2023-04-02T06:19:02;116.32;;;110.43;;
1140;SDS011;559;48.628;8.924;2023-04-02T06:21:45;125.65;;;119.35;;
1140;SDS011;559;48.628;8.924;2023-04-02T06:24:14;131.13;;;124.72;;
1140;SDS011;559;48.628;8.924;2023-04-02T06:26:43;128.35;;;121.85;;
1140;SDS011;559;48.628;8.924;2023-04-02T06:29:15;113.38;;;107.78;;
1140;SDS011;559;48.628;8.924;2023-04-02T06:31:45;103.68;;;98.30;;
1140;SDS011;559;48.628;8.924;2023-04-02T06:34:14;100.70;;;95.50;;
1140;SDS011;559;48.628;8.924;2023-04-02T06:36:44;104.57;;;99.25;;
1140;SDS011;559;48.628;8.924;2023-04-02T06:39:17;105.55;;;100.35;;
1140;SDS011;559;48.628;8.924;2023-04-02T06:41:44;100.15;;;94.95;;
1140;SDS011;559;48.628;8.924;2023-04-02T06:44:13;101.03;;;95.82;;
1140;SDS011;559;48.628;8.924;2023-04-02T06:46:46;92.25;;;87.25;;
1140;SDS011;559;48.628;8.924;2023-04-02T06:49:15;93.50;;;88.57;;
1140;SDS011;559;48.628;8.924;2023-04-02T06:51:46;101.40;;;96.20;;
1140;SDS011;559;48.628;8.924;2023-04-02T06:54:14;98.60;;;93.40;;
1140;SDS011;559;48.628;8.924;2023-04-02T06:56:42;97.05;;;92.25;;
1140;SDS011;559;48.628;8.924;2023-04-02T06:59:10;95.47;;;90.68;;
1140;SDS011;559;48.628;8.924;2023-04-02T07:01:38;96.88;;;92.07;;
1140;SDS011;559;48.628;8.924;2023-04-02T07:04:08;100.90;;;96.10;;
1140;SDS011;559;48.628;8.924;2023-04-02T07:06:35;98.00;;;93.20;;
1140;SDS011;559;48.628;8.924;2023-04-02T07:09:03;93.43;;;88.72;;
1140;SDS011;559;48.628;8.924;2023-04-02T07:11:31;93.50;;;88.90;;
1140;SDS011;559;48.628;8.924;2023-04-02T07:13:58;93.97;;;89.28;;
1140;SDS011;559;48.628;8.924;2023-04-02T07:16:25;94.28;;;89.57;;
1140;SDS011;559;48.628;8.924;2023-04-02T07:18:53;91.13;;;86.43;;
1140;SDS011;559;48.628;8.924;2023-04-02T07:21:22;87.55;;;82.90;;
1140;SDS011;559;48.628;8.924;2023-04-02T07:23:50;92.50;;;87.60;;
1140;SDS011;559;48.628;8.924;2023-04-02T07:26:19;96.45;;;91.85;;
1140;SDS011;559;48.628;8.924;2023-04-02T07:28:47;89.57;;;85.07;;
1140;SDS011;559;48.628;8.924;2023-04-02T07:31:15;89.90;;;85.45;;
1140;SDS011;559;48.628;8.924;2023-04-02T07:33:43;88.28;;;83.78;;
1140;SDS011;559;48.628;8.924;2023-04-02T07:36:12;89.00;;;84.47;;
1140;SDS011;559;48.628;8.924;2023-04-02T07:38:40;87.28;;;82.47;;
1140;SDS011;559;48.628;8.924;2023-04-02T07:41:07;90.90;;;86.50;;
1140;SDS011;559;48.628;8.924;2023-04-02T07:43:36;92.90;;;87.68;;
1140;SDS011;559;48.628;8.924;2023-04-02T07:46:03;87.60;;;83.20;;
1140;SDS011;559;48.628;8.924;2023-04-02T07:48:30;88.32;;;84.00;;
1140;SDS011;559;48.628;8.924;2023-04-02T07:50:57;92.68;;;88.18;;
1140;SDS011;559;48.628;8.924;2023-04-02T07:53:28;91.90;;;87.50;;
1140;SDS011;559;48.628;8.924;2023-04-02T07:55:56;91.97;;;87.47;;
1140;SDS011;559;48.628;8.924;2023-04-02T07:58:25;87.32;;;83.03;;
1140;SDS011;559;48.628;8.924;2023-04-02T08:00:53;83.18;;;79.07;;
1140;SDS011;559;48.628;8.924;2023-04-02T08:03:19;84.90;;;80.70;;
1140;SDS011;559;48.628;8.924;2023-04-02T08:05:50;84.78;;;80.68;;
1140;SDS011;559;48.628;8.924;2023-04-02T08:08:17;84.15;;;79.97;;
1140;SDS011;559;48.628;8.924;2023-04-02T08:10:44;83.20;;;79.00;;
1140;SDS011;559;48.628;8.924;2023-04-02T08:13:11;81.90;;;77.90;;
1140;SDS011;559;48.628;8.924;2023-04-02T08:15:37;85.82;;;81.45;;
1140;SDS011;559;48.628;8.924;2023-04-02T08:18:05;82.32;;;78.30;;
1140;SDS011;559;48.628;8.924;2023-04-02T08:20:32;79.95;;;76.03;;
1140;SDS011;559;48.628;8.924;2023-04-02T08:22:59;77.22;;;73.50;;
1140;SDS011;559;48.628;8.924;2023-04-02T08:25:26;77.15;;;73.45;;
1140;SDS011;559;48.628;8.924;2023-04-02T08:27:52;76.72;;;73.03;;
1140;SDS011;559;48.628;8.924;2023-04-02T08:30:19;75.78;;;72.18;;
1140;SDS011;559;48.628;8.924;2023-04-02T08:32:46;77.07;;;73.38;;
1140;SDS011;559;48.628;8.924;2023-04-02T08:35:15;73.85;;;70.35;;
1140;SDS011;559;48.628;8.924;2023-04-02T08:37:42;72.70;;;69.30;;
1140;SDS011;559;48.628;8.924;2023-04-02T08:40:14;73.50;;;70.10;;
1140;SDS011;559;48.628;8.924;2023-04-02T08:42:48;73.47;;;70.10;;
1140;SDS011;559;48.628;8.924;2023-04-02T08:45:24;75.85;;;72.35;;
1140;SDS011;559;48.628;8.924;2023-04-02T08:47:58;76.25;;;72.85;;
1140;SDS011;559;48.628;8.924;2023-04-02T08:50:29;76.15;;;72.55;;
1140;SDS011;559;48.628;8.924;2023-04-02T08:52:57;73.13;;;69.72;;
1140;SDS011;559;48.628;8.924;2023-04-02T08:55:26;71.88;;;68.57;;
1140;SDS011;559;48.628;8.924;2023-04-02T08:58:00;70.10;;;66.90;;
1140;SDS011;559;48.628;8.924;2023-04-02T09:00:33;73.50;;;70.20;;
1140;SDS011;559;48.628;8.924;2023-04-02T09:03:02;68.05;;;64.95;;
1140;SDS011;559;48.628;8.924;2023-04-02T09:05:33;70.22;;;67.13;;
1140;SDS011;559;48.628;8.924;2023-04-02T09:08:03;65.70;;;62.80;;
1140;SDS011;559;48.628;8.924;2023-04-02T09:10:32;64.55;;;61.85;;
1140;SDS011;559;48.628;8.924;2023-04-02T09:13:02;66.90;;;64.20;;
1140;SDS011;559;48.628;8.924;2023-04-02T09:15:32;63.10;;;60.40;;
1140;SDS011;559;48.628;8.924;2023-04-02T09:18:10;62.03;;;59.47;;
1140;SDS011;559;48.628;8.924;2023-04-02T09:20:40;60.85;;;58.35;;
1140;SDS011;559;48.628;8.924;2023-04-02T09:23:07;58.85;;;56.55;;
1140;SDS011;559;48.628;8.924;2023-04-02T09:25:41;60.08;;;57.67;;
1140;SDS011;559;48.628;8.924;2023-04-02T09:28:09;57.50;;;55.30;;
1140;SDS011;559;48.628;8.924;2023-04-02T09:30:40;60.30;;;57.80;;
1140;SDS011;559;48.628;8.924;2023-04-02T09:33:14;59.55;;;57.35;;
1140;SDS011;559;48.628;8.924;2023-04-02T09:35:54;57.47;;;55.38;;
1140;SDS011;559;48.628;8.924;2023-04-02T09:38:22;58.65;;;56.40;;
1140;SDS011;559;48.628;8.924;2023-04-02T09:40:56;59.40;;;57.10;;
1140;SDS011;559;48.628;8.924;2023-04-02T09:43:24;57.83;;;55.38;;
1140;SDS011;559;48.628;8.924;2023-04-02T09:45:56;57.40;;;55.17;;
1140;SDS011;559;48.628;8.924;2023-04-02T09:48:24;55.92;;;53.92;;
1140;SDS011;559;48.628;8.924;2023-04-02T09:51:05;57.00;;;54.80;;
1140;SDS011;559;48.628;8.924;2023-04-02T09:53:37;55.95;;;53.85;;
1140;SDS011;559;48.628;8.924;2023-04-02T09:56:09;51.92;;;50.03;;
1140;SDS011;559;48.628;8.924;2023-04-02T09:58:43;52.92;;;51.08;;
1140;SDS011;559;48.628;8.924;2023-04-02T10:01:23;54.45;;;52.35;;
1140;SDS011;559;48.628;8.924;2023-04-02T10:03:52;54.63;;;52.53;;
1140;SDS011;559;48.628;8.924;2023-04-02T10:06:20;51.72;;;49.72;;
1140;SDS011;559;48.628;8.924;2023-04-02T10:08:46;52.08;;;50.08;;
1140;SDS011;559;48.628;8.924;2023-04-02T10:11:13;51.78;;;49.67;;
1140;SDS011;559;48.628;8.924;2023-04-02T10:13:45;52.42;;;50.45;;
1140;SDS011;559;48.628;8.924;2023-04-02T10:16:18;49.97;;;48.05;;
1140;SDS011;559;48.628;8.924;2023-04-02T10:18:49;45.55;;;43.75;;
1140;SDS011;559;48.628;8.924;2023-04-02T10:21:17;43.42;;;41.97;;
1140;SDS011;559;48.628;8.924;2023-04-02T10:23:46;42.30;;;41.00;;
1140;SDS011;559;48.628;8.924;2023-04-02T10:26:23;36.65;;;35.55;;
1140;SDS011;559;48.628;8.924;2023-04-02T10:29:07;36.38;;;35.38;;
1140;SDS011;559;48.628;8.924;2023-04-02T10:31:43;43.88;;;42.47;;
1140;SDS011;559;48.628;8.924;2023-04-02T10:34:15;41.63;;;40.33;;
1140;SDS011;559;48.628;8.924;2023-04-02T10:36:48;40.47;;;39.28;;
1140;SDS011;559;48.628;8.924;2023-04-02T10:39:17;40.13;;;39.03;;
1140;SDS011;559;48.628;8.924;2023-04-02T10:41:46;40.78;;;39.67;;
1140;SDS011;559;48.628;8.924;2023-04-02T10:47:16;46.97;;;45.70;;
1140;SDS011;559;48.628;8.924;2023-04-02T10:49:52;50.92;;;48.58;;
1140;SDS011;559;48.628;8.924;2023-04-02T10:52:26;50.40;;;48.90;;
1140;SDS011;559;48.628;8.924;2023-04-02T10:54:55;49.50;;;48.13;;
1140;SDS011;559;48.628;8.924;2023-04-02T10:57:28;51.22;;;49.83;;
1140;SDS011;559;48.628;8.924;2023-04-02T10:59:59;41.22;;;39.83;;
1140;SDS011;559;48.628;8.924;2023-04-02T11:02:33;49.10;;;47.60;;
1140;SDS011;559;48.628;8.924;2023-04-02T11:05:11;57.22;;;55.03;;
1140;SDS011;559;48.628;8.924;2023-04-02T11:07:48;64.10;;;61.53;;
1140;SDS011;559;48.628;8.924;2023-04-02T11:10:19;68.60;;;65.68;;
1140;SDS011;559;48.628;8.924;2023-04-02T11:12:48;73.13;;;69.93;;
1140;SDS011;559;48.628;8.924;2023-04-02T11:15:18;78.50;;;74.85;;
1140;SDS011;559;48.628;8.924;2023-04-02T11:17:46;80.43;;;76.53;;
1140;SDS011;559;48.628;8.924;2023-04-02T11:23:10;83.70;;;79.70;;
1140;SDS011;559;48.628;8.924;2023-04-02T11:25:37;85.70;;;81.63;;
1140;SDS011;559;48.628;8.924;2023-04-02T11:28:17;90.80;;;86.53;;
1140;SDS011;559;48.628;8.924;2023-04-02T11:30:51;90.53;;;86.22;;
1140;SDS011;559;48.628;8.924;2023-04-02T11:33:37;82.43;;;78.22;;
1140;SDS011;559;48.628;8.924;2023-04-02T11:39:10;82.32;;;78.22;;
1140;SDS011;559;48.628;8.924;2023-04-02T11:44:26;86.82;;;82.63;;
1140;SDS011;559;48.628;8.924;2023-04-02T11:46:57;91.60;;;87.10;;
1140;SDS011;559;48.628;8.924;2023-04-02T11:49:55;84.82;;;80.60;;
1140;SDS011;559;48.628;8.924;2023-04-02T11:52:26;83.75;;;79.60;;
1140;SDS011;559;48.628;8.924;2023-04-02T11:54:59;82.88;;;78.78;;
1140;SDS011;559;48.628;8.924;2023-04-02T12:00:31;79.28;;;75.38;;
1140;SDS011;559;48.628;8.924;2023-04-02T12:06:18;83.82;;;79.60;;
1140;SDS011;559;48.628;8.924;2023-04-02T12:08:53;84.75;;;80.45;;
1140;SDS011;559;48.628;8.924;2023-04-02T12:11:31;85.57;;;81.10;;
1140;SDS011;559;48.628;8.924;2023-04-02T12:13:59;84.85;;;80.63;;
1140;SDS011;559;48.628;8.924;2023-04-02T12:16:26;86.55;;;82.05;;
1140;SDS011;559;48.628;8.924;2023-04-02T12:18:56;89.15;;;84.65;;
1140;SDS011;559;48.628;8.924;2023-04-02T12:21:24;85.95;;;81.55;;
1140;SDS011;559;48.628;8.924;2023-04-02T12:23:53;82.25;;;78.05;;
1140;SDS011;559;48.628;8.924;2023-04-02T12:26:28;76.80;;;72.80;;
1140;SDS011;559;48.628;8.924;2023-04-02T12:29:13;77.63;;;73.72;;
1140;SDS011;559;48.628;8.924;2023-04-02T12:31:50;84.30;;;80.10;;
1140;SDS011;559;48.628;8.924;2023-04-02T12:34:18;80.10;;;76.00;;
1140;SDS011;559;48.628;8.924;2023-04-02T12:36:52;76.30;;;72.40;;
1140;SDS011;559;48.628;8.924;2023-04-02T12:39:19;76.95;;;73.05;;
1140;SDS011;559;48.628;8.924;2023-04-02T12:41:47;72.82;;;69.13;;
1140;SDS011;559;48.628;8.924;2023-04-02T12:44:17;68.13;;;64.70;;
1140;SDS011;559;48.628;8.924;2023-04-02T12:46:45;66.60;;;63.30;;
1140;SDS011;559;48.628;8.924;2023-04-02T12:49:18;69.82;;;66.43;;
1140;SDS011;559;48.628;8.924;2023-04-02T12:51:48;66.40;;;63.20;;
1140;SDS011;559;48.628;8.924;2023-04-02T12:54:16;65.78;;;62.78;;
1140;SDS011;559;48.628;8.924;2023-04-02T12:56:44;62.80;;;60.00;;
1140;SDS011;559;48.628;8.924;2023-04-02T12:59:21;64.07;;;61.17;;
1140;SDS011;559;48.628;8.924;2023-04-02T13:01:56;65.07;;;62.30;;
1140;SDS011;559;48.628;8.924;2023-04-02T13:04:23;64.50;;;61.60;;
1140;SDS011;559;48.628;8.924;2023-04-02T13:06:50;67.28;;;64.15;;
1140;SDS011;559;48.628;8.924;2023-04-02T13:09:27;64.28;;;61.50;;
1140;SDS011;559;48.628;8.924;2023-04-02T13:11:56;67.00;;;64.10;;
1140;SDS011;559;48.628;8.924;2023-04-02T13:14:24;69.57;;;66.70;;
1140;SDS011;559;48.628;8.924;2023-04-02T13:16:51;70.28;;;67.18;;
1140;SDS011;559;48.628;8.924;2023-04-02T13:19:20;67.95;;;65.15;;
1140;SDS011;559;48.628;8.924;2023-04-02T13:21:49;69.35;;;66.45;;
1140;SDS011;559;48.628;8.924;2023-04-02T13:24:16;66.97;;;64.18;;
1140;SDS011;559;48.628;8.924;2023-04-02T13:26:43;68.20;;;65.50;;
1140;SDS011;559;48.628;8.924;2023-04-02T13:29:16;70.05;;;67.15;;
1140;SDS011;559;48.628;8.924;2023-04-02T13:31:46;69.68;;;66.88;;
1140;SDS011;559;48.628;8.924;2023-04-02T13:34:13;65.55;;;62.95;;
1140;SDS011;559;48.628;8.924;2023-04-02T13:36:40;71.68;;;68.88;;
1140;SDS011;559;48.628;8.924;2023-04-02T13:39:06;68.28;;;65.57;;
1140;SDS011;559;48.628;8.924;2023-04-02T13:41:34;71.35;;;68.45;;
1140;SDS011;559;48.628;8.924;2023-04-02T13:44:02;71.45;;;68.35;;
1140;SDS011;559;48.628;8.924;2023-04-02T13:46:29;75.00;;;71.90;;
1140;SDS011;559;48.628;8.924;2023-04-02T13:48:58;73.43;;;70.18;;
1140;SDS011;559;48.628;8.924;2023-04-02T13:51:26;74.40;;;71.22;;
1140;SDS011;559;48.628;8.924;2023-04-02T13:53:57;79.03;;;75.82;;
1140;SDS011;559;48.628;8.924;2023-04-02T13:56:23;77.97;;;74.78;;
1140;SDS011;559;48.628;8.924;2023-04-02T13:58:50;80.43;;;77.13;;
1140;SDS011;559;48.628;8.924;2023-04-02T14:01:16;83.95;;;80.25;;
1140;SDS011;559;48.628;8.924;2023-04-02T14:03:44;83.88;;;80.18;;
1140;SDS011;559;48.628;8.924;2023-04-02T14:06:13;78.65;;;75.15;;
1140;SDS011;559;48.628;8.924;2023-04-02T14:08:46;80.53;;;76.82;;
1140;SDS011;559;48.628;8.924;2023-04-02T14:11:23;81.82;;;77.95;;
1140;SDS011;559;48.628;8.924;2023-04-02T14:14:07;83.95;;;80.05;;
1140;SDS011;559;48.628;8.924;2023-04-02T14:16:45;85.25;;;81.25;;
1140;SDS011;559;48.628;8.924;2023-04-02T14:19:20;84.45;;;80.55;;
1140;SDS011;559;48.628;8.924;2023-04-02T14:22:07;87.90;;;83.72;;
1140;SDS011;559;48.628;8.924;2023-04-02T14:24:51;88.35;;;84.18;;
1140;SDS011;559;48.628;8.924;2023-04-02T14:27:23;91.97;;;87.60;;
1140;SDS011;559;48.628;8.924;2023-04-02T14:29:56;92.85;;;88.43;;
1140;SDS011;559;48.628;8.924;2023-04-02T14:32:33;92.47;;;87.78;;
1140;SDS011;559;48.628;8.924;2023-04-02T14:35:05;111.05;;;105.15;;
1140;SDS011;559;48.628;8.924;2023-04-02T14:37:40;105.25;;;99.75;;
1140;SDS011;559;48.628;8.924;2023-04-02T14:40:17;119.20;;;112.82;;
1140;SDS011;559;48.628;8.924;2023-04-02T14:42:46;122.07;;;115.45;;
1140;SDS011;559;48.628;8.924;2023-04-02T14:45:20;124.95;;;118.35;;
1140;SDS011;559;48.628;8.924;2023-04-02T14:47:52;124.07;;;117.53;;
1140;SDS011;559;48.628;8.924;2023-04-02T14:50:21;122.68;;;116.22;;
1140;SDS011;559;48.628;8.924;2023-04-02T14:52:54;125.78;;;119.13;;
1140;SDS011;559;48.628;8.924;2023-04-02T14:55:24;124.63;;;117.93;;
1140;SDS011;559;48.628;8.924;2023-04-02T14:57:55;123.30;;;116.70;;
1140;SDS011;559;48.628;8.924;2023-04-02T15:00:27;124.75;;;118.07;;
1140;SDS011;559;48.628;8.924;2023-04-02T15:03:04;121.20;;;114.68;;
1140;SDS011;559;48.628;8.924;2023-04-02T15:05:37;126.50;;;119.50;;
1140;SDS011;559;48.628;8.924;2023-04-02T15:08:23;127.00;;;120.00;;
1140;SDS011;559;48.628;8.924;2023-04-02T15:11:29;131.15;;;124.05;;
1140;SDS011;559;48.628;8.924;2023-04-02T15:14:11;130.45;;;123.15;;
1140;SDS011;559;48.628;8.924;2023-04-02T15:17:25;127.78;;;120.55;;
1140;SDS011;559;48.628;8.924;2023-04-02T15:23:35;129.40;;;121.78;;
1140;SDS011;559;48.628;8.924;2023-04-02T15:26:06;134.05;;;126.95;;
1140;SDS011;559;48.628;8.924;2023-04-02T15:28:39;134.98;;;127.88;;
1140;SDS011;559;48.628;8.924;2023-04-02T15:31:10;134.90;;;127.90;;
1140;SDS011;559;48.628;8.924;2023-04-02T15:33:41;134.40;;;127.30;;
1140;SDS011;559;48.628;8.924;2023-04-02T15:39:07;136.13;;;128.88;;
1140;SDS011;559;48.628;8.924;2023-04-02T15:41:45;143.40;;;135.80;;
1140;SDS011;559;48.628;8.924;2023-04-02T15:44:20;137.73;;;130.25;;
1140;SDS011;559;48.628;8.924;2023-04-02T15:46:48;141.45;;;133.85;;